Time;durP1;ratioP1;P1;durP2;ratioP2;P2;SDS_P1;SDS_P2;PMS_P1;PMS_P2;Temp;Humidity;BMP_temperature;BMP_pressure;BME280_temperature;BME280_humidity;BME280_pressure;Samples;Min_cycle;Max_cycle;Signal;HPM_P1;HPM_P2
2023/08/24 00:00:43;;;;;;;13.57;10.57;;;17.50;99.90;;;;;;5035694;28;20201;-74
2023/08/24 00:03:10;;;;;;;12.38;11.02;;;17.40;99.90;;;;;;5035365;28;20218;-74
2023/08/24 00:05:38;;;;;;;13.88;10.70;;;17.30;99.90;;;;;;5035442;28;20194;-74
2023/08/24 00:08:05;;;;;;;13.23;10.82;;;17.30;99.90;;;;;;5035486;28;20244;-73
2023/08/24 00:10:32;;;;;;;10.95;9.90;;;17.30;99.90;;;;;;5035098;28;20574;-73
2023/08/24 00:13:00;;;;;;;11.60;10.40;;;17.30;99.90;;;;;;5034986;28;20198;-73
2023/08/24 00:15:27;;;;;;;11.18;10.13;;;17.10;99.90;;;;;;5035242;28;20206;-73
2023/08/24 00:17:54;;;;;;;10.77;9.65;;;17.10;99.90;;;;;;5035186;28;20203;-73
2023/08/24 00:20:20;;;;;;;9.65;8.68;;;17.10;99.90;;;;;;5035069;28;20276;-73
2023/08/24 00:22:48;;;;;;;10.82;9.77;;;17.00;99.90;;;;;;5034820;28;20704;-73
2023/08/24 00:25:15;;;;;;;11.10;9.00;;;17.00;99.90;;;;;;5034887;28;20277;-73
2023/08/24 00:27:42;;;;;;;11.25;9.27;;;17.00;99.90;;;;;;5034832;28;20201;-73
2023/08/24 00:30:11;;;;;;;12.32;9.98;;;17.00;99.90;;;;;;5034799;28;20245;-74
2023/08/24 00:32:37;;;;;;;10.75;9.60;;;16.90;99.90;;;;;;5034880;28;20260;-73
2023/08/24 00:35:06;;;;;;;10.75;9.65;;;16.90;99.90;;;;;;5034836;28;20206;-73
2023/08/24 00:37:33;;;;;;;11.10;9.88;;;17.00;99.90;;;;;;5034905;28;20238;-73
2023/08/24 00:40:03;;;;;;;10.35;9.43;;;17.10;99.90;;;;;;5034442;28;20234;-73
2023/08/24 00:42:29;;;;;;;11.70;10.45;;;17.00;99.90;;;;;;5034759;28;20203;-74
2023/08/24 00:44:56;;;;;;;11.15;10.02;;;16.90;99.90;;;;;;5034652;28;20268;-73
2023/08/24 00:47:24;;;;;;;10.65;9.65;;;16.80;99.90;;;;;;5033867;28;20202;-73
2023/08/24 00:49:51;;;;;;;13.30;9.23;;;16.80;99.90;;;;;;5034461;28;20202;-73
2023/08/24 00:52:19;;;;;;;11.75;9.77;;;16.70;99.90;;;;;;5034362;28;20203;-73
2023/08/24 00:54:46;;;;;;;9.75;8.85;;;16.70;99.90;;;;;;5034617;28;20210;-73
2023/08/24 00:57:13;;;;;;;9.85;8.95;;;16.70;99.90;;;;;;5034473;28;20249;-73
2023/08/24 00:59:40;;;;;;;9.90;8.98;;;16.60;99.90;;;;;;5034411;28;20198;-74
2023/08/24 01:02:07;;;;;;;10.65;9.50;;;16.60;99.90;;;;;;5034264;28;20203;-73
2023/08/24 01:04:35;;;;;;;9.13;8.32;;;16.80;99.90;;;;;;5034020;28;20222;-73
2023/08/24 01:07:02;;;;;;;10.48;8.68;;;17.00;99.90;;;;;;5034020;28;20198;-73
2023/08/24 01:09:29;;;;;;;12.43;8.15;;;17.10;99.90;;;;;;5034221;28;20224;-73
2023/08/24 01:12:03;;;;;;;9.90;9.00;;;17.00;99.90;;;;;;5033900;28;20199;-73
2023/08/24 01:14:41;;;;;;;11.23;8.10;;;17.10;99.90;;;;;;5034000;28;20213;-73
2023/08/24 01:17:13;;;;;;;9.35;8.45;;;17.00;99.90;;;;;;5033896;28;20198;-74
2023/08/24 01:19:43;;;;;;;10.35;9.20;;;16.80;99.90;;;;;;5033813;28;20619;-73
2023/08/24 01:22:25;;;;;;;10.95;8.35;;;16.90;99.90;;;;;;5033772;28;20237;-73
2023/08/24 01:24:58;;;;;;;10.52;8.35;;;16.70;99.90;;;;;;5033871;28;20234;-72
2023/08/24 01:27:28;;;;;;;9.70;8.65;;;16.60;99.90;;;;;;5033798;28;20198;-73
2023/08/24 01:29:56;;;;;;;10.32;9.32;;;16.70;99.90;;;;;;5033621;28;20238;-73
2023/08/24 01:32:23;;;;;;;9.35;8.52;;;16.90;99.90;;;;;;5033761;28;20260;-73
2023/08/24 01:34:50;;;;;;;11.10;8.32;;;17.00;99.90;;;;;;5033734;28;20264;-73
2023/08/24 01:37:16;;;;;;;10.38;9.20;;;16.90;99.90;;;;;;5033468;28;20210;-73
2023/08/24 01:39:47;;;;;;;10.85;8.88;;;16.70;99.90;;;;;;5033158;28;20666;-73
2023/08/24 01:42:21;;;;;;;11.60;9.77;;;16.50;99.90;;;;;;5033375;28;20717;-73
2023/08/24 01:44:53;;;;;;;12.15;10.15;;;16.40;99.90;;;;;;5033558;28;20233;-73
2023/08/24 01:47:22;;;;;;;11.57;9.02;;;16.30;99.90;;;;;;5033532;28;20251;-74
2023/08/24 01:49:49;;;;;;;12.88;9.52;;;16.30;99.90;;;;;;5033269;28;20257;-73
2023/08/24 01:52:16;;;;;;;15.35;9.50;;;16.20;99.90;;;;;;5033297;28;20194;-73
2023/08/24 01:54:43;;;;;;;16.35;11.32;;;16.20;99.90;;;;;;5033244;28;20256;-74
2023/08/24 01:57:11;;;;;;;11.05;10.00;;;16.20;99.90;;;;;;5033051;28;20252;-73
2023/08/24 01:59:38;;;;;;;12.77;11.57;;;16.10;99.90;;;;;;5033273;28;20198;-73
2023/08/24 02:02:06;;;;;;;12.02;10.85;;;16.10;99.90;;;;;;5032994;28;20574;-74
2023/08/24 02:04:33;;;;;;;13.05;11.68;;;16.10;99.90;;;;;;5033168;28;20257;-73
2023/08/24 02:06:59;;;;;;;12.30;11.18;;;16.20;99.90;;;;;;5033123;28;20210;-73
2023/08/24 02:09:26;;;;;;;12.15;10.90;;;16.30;99.90;;;;;;5033058;28;20201;-73
2023/08/24 02:11:52;;;;;;;13.00;11.70;;;16.20;99.90;;;;;;5033236;28;20221;-73
2023/08/24 02:14:19;;;;;;;13.18;11.98;;;16.10;99.90;;;;;;5033191;28;20202;-74
2023/08/24 02:16:46;;;;;;;13.77;12.30;;;16.00;99.90;;;;;;5032867;28;20724;-74
2023/08/24 02:19:14;;;;;;;14.80;13.32;;;16.00;99.90;;;;;;5033008;28;20252;-73
2023/08/24 02:21:40;;;;;;;14.25;12.95;;;15.90;99.90;;;;;;5033071;28;20209;-73
2023/08/24 02:24:07;;;;;;;16.08;12.55;;;15.80;99.90;;;;;;5032751;28;20217;-73
2023/08/24 02:26:34;;;;;;;14.10;12.13;;;15.70;99.90;;;;;;5033005;28;20198;-73
2023/08/24 02:29:01;;;;;;;14.73;11.38;;;15.80;99.90;;;;;;5032945;28;20195;-73
2023/08/24 02:31:27;;;;;;;14.50;11.85;;;15.90;99.90;;;;;;5032839;28;20610;-74
2023/08/24 02:33:54;;;;;;;14.18;12.60;;;15.90;99.90;;;;;;5032811;28;20260;-73
2023/08/24 02:36:22;;;;;;;13.25;12.00;;;16.00;99.90;;;;;;5033088;28;20252;-74
2023/08/24 02:38:48;;;;;;;13.57;12.00;;;15.90;99.90;;;;;;5032799;28;20233;-74
2023/08/24 02:41:15;;;;;;;15.35;12.90;;;15.80;99.90;;;;;;5032801;28;20284;-75
2023/08/24 02:43:41;;;;;;;14.30;12.98;;;15.80;99.90;;;;;;5032794;28;20218;-74
2023/08/24 02:46:09;;;;;;;14.18;12.90;;;15.80;99.90;;;;;;5032834;28;20229;-73
2023/08/24 02:48:36;;;;;;;13.05;11.68;;;15.90;99.90;;;;;;5032659;28;20202;-74
2023/08/24 02:51:05;;;;;;;13.00;11.73;;;16.00;99.90;;;;;;5032644;28;20198;-73
2023/08/24 02:53:33;;;;;;;13.15;12.05;;;16.00;99.90;;;;;;5032545;28;20210;-73
2023/08/24 02:55:59;;;;;;;13.43;12.02;;;16.10;99.90;;;;;;5032634;28;20248;-73
2023/08/24 02:58:26;;;;;;;12.05;10.82;;;16.10;99.90;;;;;;5032680;28;20260;-73
2023/08/24 03:00:53;;;;;;;12.68;11.52;;;16.10;99.90;;;;;;5032500;28;20294;-73
2023/08/24 03:03:20;;;;;;;12.60;11.43;;;16.10;99.90;;;;;;5032489;28;20198;-73
2023/08/24 03:05:57;;;;;;;12.48;11.48;;;16.00;99.90;;;;;;5032340;28;20230;-73
2023/08/24 03:08:24;;;;;;;12.77;11.65;;;16.00;99.90;;;;;;5032595;28;20295;-73
2023/08/24 03:10:52;;;;;;;14.30;12.90;;;15.80;99.90;;;;;;5033085;28;20198;-73
2023/08/24 03:13:19;;;;;;;14.38;12.98;;;15.80;99.90;;;;;;5036387;28;20244;-73
2023/08/24 03:15:45;;;;;;;14.10;12.70;;;15.70;99.90;;;;;;5036204;28;20206;-74
2023/08/24 03:18:13;;;;;;;15.23;13.73;;;15.50;99.90;;;;;;5036108;28;20202;-73
2023/08/24 03:20:40;;;;;;;14.98;12.98;;;15.40;99.90;;;;;;5036262;28;20284;-73
2023/08/24 03:23:07;;;;;;;15.52;13.95;;;15.30;99.90;;;;;;5036240;28;20248;-73
2023/08/24 03:25:37;;;;;;;14.85;13.32;;;15.30;99.90;;;;;;5036037;28;20230;-74
2023/08/24 03:28:06;;;;;;;14.05;12.65;;;15.40;99.90;;;;;;5036033;28;20202;-73
2023/08/24 03:30:33;;;;;;;17.13;13.65;;;15.50;99.90;;;;;;5035915;28;20199;-73
2023/08/24 03:33:00;;;;;;;14.05;12.80;;;15.30;99.90;;;;;;5035804;28;20199;-73
2023/08/24 03:35:27;;;;;;;14.80;13.23;;;15.30;99.90;;;;;;5035971;28;20230;-73
2023/08/24 03:37:54;;;;;;;14.10;12.70;;;15.30;99.90;;;;;;5035903;28;20202;-73
2023/08/24 03:40:21;;;;;;;13.75;12.55;;;15.20;99.90;;;;;;5035626;28;20296;-74
2023/08/24 03:42:47;;;;;;;13.73;12.45;;;15.20;99.90;;;;;;5035977;28;20208;-73
2023/08/24 03:45:16;;;;;;;14.68;13.38;;;15.20;99.90;;;;;;5035461;28;20693;-73
2023/08/24 03:47:42;;;;;;;15.30;13.57;;;15.30;99.90;;;;;;5035788;28;20206;-73
2023/08/24 03:50:09;;;;;;;13.85;12.55;;;15.30;99.90;;;;;;5035680;28;20202;-73
2023/08/24 03:52:36;;;;;;;14.52;13.30;;;15.40;99.90;;;;;;5035655;28;20209;-73
2023/08/24 03:55:03;;;;;;;13.95;12.50;;;15.40;99.90;;;;;;5035543;28;20194;-73
2023/08/24 03:57:30;;;;;;;13.18;11.98;;;15.40;99.90;;;;;;5035475;28;20257;-73
2023/08/24 03:59:57;;;;;;;13.57;12.27;;;15.30;99.90;;;;;;5035286;28;20584;-73
2023/08/24 04:02:26;;;;;;;14.23;12.77;;;15.30;99.90;;;;;;5035278;28;20692;-73
2023/08/24 04:04:53;;;;;;;14.93;13.45;;;15.30;99.90;;;;;;5035743;28;20226;-74
2023/08/24 04:07:20;;;;;;;14.80;13.27;;;15.30;99.90;;;;;;5035484;28;20256;-73
2023/08/24 04:09:47;;;;;;;16.58;13.30;;;15.30;99.90;;;;;;5035282;28;20201;-73
2023/08/24 04:12:13;;;;;;;13.80;12.63;;;15.40;99.90;;;;;;5035231;28;20264;-73
2023/08/24 04:14:40;;;;;;;13.73;12.52;;;15.40;99.90;;;;;;5035047;28;20260;-74
2023/08/24 04:17:06;;;;;;;15.90;13.48;;;15.40;99.90;;;;;;5035486;28;20198;-74
2023/08/24 04:19:38;;;;;;;15.80;14.17;;;15.50;99.90;;;;;;5035228;28;20198;-73
2023/08/24 04:22:05;;;;;;;15.23;13.93;;;15.40;99.90;;;;;;5034389;28;20203;-73
2023/08/24 04:24:31;;;;;;;14.98;13.68;;;15.40;99.90;;;;;;5034742;28;20226;-73
2023/08/24 04:26:58;;;;;;;17.33;12.90;;;15.40;99.90;;;;;;5034879;28;20256;-74
2023/08/24 04:29:25;;;;;;;14.77;13.18;;;15.40;99.90;;;;;;5035057;28;20257;-73
2023/08/24 04:31:51;;;;;;;14.52;13.13;;;15.40;99.90;;;;;;5034850;28;20682;-73
2023/08/24 04:34:18;;;;;;;14.45;13.07;;;15.50;99.90;;;;;;5034825;28;20206;-74
2023/08/24 04:36:46;;;;;;;14.15;12.75;;;15.50;99.90;;;;;;5034536;28;20730;-74
2023/08/24 04:39:13;;;;;;;14.60;13.13;;;15.60;99.90;;;;;;5034729;28;20198;-73
2023/08/24 04:41:40;;;;;;;14.57;13.07;;;15.60;99.90;;;;;;5034435;28;20230;-73
2023/08/24 04:44:07;;;;;;;16.05;12.85;;;15.60;99.90;;;;;;5034732;28;20202;-73
2023/08/24 04:46:34;;;;;;;13.80;12.50;;;15.60;99.90;;;;;;5034702;28;20202;-74
2023/08/24 04:49:01;;;;;;;11.93;10.90;;;15.80;99.90;;;;;;5034617;28;20211;-73
2023/08/24 04:51:29;;;;;;;13.38;12.02;;;16.00;99.90;;;;;;5034522;28;20225;-73
2023/08/24 04:53:56;;;;;;;12.75;10.57;;;16.10;99.90;;;;;;5034387;28;20256;-73
2023/08/24 04:56:23;;;;;;;12.00;10.90;;;16.30;99.90;;;;;;5034334;28;20252;-73
2023/08/24 04:58:54;;;;;;;11.27;9.75;;;16.40;99.90;;;;;;5034373;28;20198;-74
2023/08/24 05:01:21;;;;;;;11.20;9.82;;;16.60;99.90;;;;;;5034282;28;20233;-73
2023/08/24 05:03:48;;;;;;;11.20;10.07;;;16.70;99.90;;;;;;5034094;28;20194;-73
2023/08/24 05:06:14;;;;;;;10.75;8.98;;;16.80;99.90;;;;;;5034085;28;20230;-74
2023/08/24 05:08:41;;;;;;;10.35;9.35;;;17.00;99.90;;;;;;5033968;28;20603;-73
2023/08/24 05:11:13;;;;;;;12.13;8.52;;;17.10;99.90;;;;;;5034150;28;20256;-73
2023/08/24 05:13:40;;;;;;;12.15;9.18;;;17.00;99.90;;;;;;5033940;28;20662;-74
2023/08/24 05:16:07;;;;;;;9.20;8.23;;;17.20;99.90;;;;;;5033942;28;20198;-72
2023/08/24 05:18:35;;;;;;;12.10;8.40;;;17.40;99.90;;;;;;5034215;28;20540;-73
2023/08/24 05:21:01;;;;;;;8.27;7.47;;;17.40;99.90;;;;;;5033844;28;20601;-73
2023/08/24 05:23:28;;;;;;;9.13;8.20;;;17.50;99.90;;;;;;5033724;28;20194;-73
2023/08/24 05:25:54;;;;;;;9.13;7.95;;;17.40;99.90;;;;;;5033884;28;20230;-74
2023/08/24 05:28:22;;;;;;;9.82;8.85;;;17.40;99.90;;;;;;5033838;28;20194;-73
2023/08/24 05:30:49;;;;;;;9.98;9.05;;;17.40;99.90;;;;;;5033709;28;20256;-73
2023/08/24 05:33:16;;;;;;;9.32;8.35;;;17.30;99.90;;;;;;5033527;28;20567;-73
2023/08/24 05:35:43;;;;;;;11.90;9.68;;;17.30;99.90;;;;;;5033423;28;20202;-74
2023/08/24 05:38:09;;;;;;;10.60;8.85;;;17.30;99.90;;;;;;5046188;28;20223;-73
2023/08/24 05:40:37;;;;;;;9.68;8.77;;;17.40;99.90;;;;;;5053296;28;20287;-73
2023/08/24 05:43:04;;;;;;;10.52;8.90;;;17.50;99.90;;;;;;5053386;28;20201;-73
2023/08/24 05:45:32;;;;;;;9.77;8.68;;;17.50;99.90;;;;;;5053133;28;20229;-74
2023/08/24 05:47:59;;;;;;;15.13;8.70;;;17.70;99.90;;;;;;5052963;28;20197;-74
2023/08/24 05:50:25;;;;;;;10.25;8.82;;;17.80;99.90;;;;;;5053113;28;20724;-73
2023/08/24 05:52:52;;;;;;;9.38;8.48;;;17.90;99.90;;;;;;5052750;28;20729;-74
2023/08/24 05:55:19;;;;;;;11.75;8.10;;;18.00;99.90;;;;;;5052997;28;20197;-74
2023/08/24 05:57:45;;;;;;;10.52;8.07;;;18.20;99.90;;;;;;5052998;28;20213;-73
2023/08/24 06:00:13;;;;;;;10.63;8.73;;;18.30;99.90;;;;;;5053001;28;20243;-74
2023/08/24 06:02:41;;;;;;;10.57;8.82;;;18.40;99.90;;;;;;5052775;28;20202;-73
2023/08/24 06:05:08;;;;;;;11.32;8.50;;;18.50;99.90;;;;;;5052833;28;20279;-73
2023/08/24 06:07:37;;;;;;;12.45;8.82;;;18.60;99.90;;;;;;5052801;28;20229;-73
2023/08/24 06:10:04;;;;;;;18.88;9.15;;;18.70;99.90;;;;;;5052919;28;20244;-77
2023/08/24 06:12:30;;;;;;;11.05;8.25;;;18.60;99.90;;;;;;5052681;28;20206;-76
2023/08/24 06:14:57;;;;;;;12.75;8.70;;;18.60;99.90;;;;;;5052815;28;20255;-77
2023/08/24 06:17:24;;;;;;;17.13;9.63;;;18.50;99.90;;;;;;5052856;28;20259;-76
2023/08/24 06:19:51;;;;;;;16.75;9.75;;;18.60;99.90;;;;;;5052821;28;20206;-76
2023/08/24 06:22:18;;;;;;;19.40;9.30;;;18.80;99.90;;;;;;5052835;28;20198;-77
2023/08/24 06:24:45;;;;;;;12.45;8.77;;;19.10;99.90;;;;;;5052920;28;20608;-77
2023/08/24 06:27:11;;;;;;;11.32;9.40;;;19.30;99.90;;;;;;5052543;28;20243;-76
2023/08/24 06:29:38;;;;;;;20.27;9.75;;;19.50;99.90;;;;;;5052576;28;20205;-76
2023/08/24 06:32:05;;;;;;;14.73;8.98;;;19.70;99.90;;;;;;5052396;28;20247;-75
2023/08/24 06:34:31;;;;;;;11.13;9.40;;;19.70;99.90;;;;;;5046379;28;20198;-77
2023/08/24 06:37:03;;;;;;;9.65;8.68;;;19.80;99.90;;;;;;5032480;28;20256;-81
2023/08/24 06:39:29;;;;;;;9.65;8.70;;;20.00;99.90;;;;;;5032685;28;20202;-81
2023/08/24 06:41:56;;;;;;;13.73;8.90;;;20.00;99.90;;;;;;5032203;28;20327;-82
2023/08/24 06:44:22;;;;;;;10.50;7.93;;;20.20;99.90;;;;;;5032565;28;20202;-81
2023/08/24 06:46:49;;;;;;;12.32;9.00;;;20.40;99.90;;;;;;5034805;28;20222;-81
2023/08/24 06:49:16;;;;;;;9.35;8.13;;;20.90;99.90;;;;;;5036813;28;20206;-84
2023/08/24 06:51:42;;;;;;;9.50;8.10;;;21.20;99.90;;;;;;5036710;28;20252;-82
2023/08/24 06:54:10;;;;;;;9.68;7.95;;;21.50;99.90;;;;;;5036750;28;20202;-82
2023/08/24 06:56:37;;;;;;;10.40;8.00;;;21.80;99.90;;;;;;5037152;28;20217;-81
2023/08/24 06:59:04;;;;;;;11.57;7.80;;;22.00;99.90;;;;;;5036446;28;20201;-81
2023/08/24 07:01:31;;;;;;;9.95;7.75;;;22.10;99.90;;;;;;5036555;28;20202;-81
2023/08/24 07:03:58;;;;;;;8.82;7.88;;;22.20;99.90;;;;;;5036377;28;20689;-81
2023/08/24 07:06:24;;;;;;;12.38;8.05;;;22.20;99.90;;;;;;5036317;28;20265;-81
2023/08/24 07:08:51;;;;;;;9.23;8.13;;;22.30;99.90;;;;;;5036586;28;20198;-81
2023/08/24 07:11:20;;;;;;;12.30;7.75;;;22.40;99.90;;;;;;5036490;28;20244;-81
2023/08/24 07:13:48;;;;;;;17.20;7.38;;;22.60;99.90;;;;;;5036342;28;20199;-81
2023/08/24 07:16:15;;;;;;;8.18;7.07;;;22.90;99.90;;;;;;5036215;28;20662;-81
2023/08/24 07:18:41;;;;;;;9.77;6.88;;;22.90;99.90;;;;;;5036412;28;20218;-81
2023/08/24 07:21:08;;;;;;;8.90;6.80;;;23.00;99.90;;;;;;5036273;28;20198;-80
2023/08/24 07:23:34;;;;;;;11.52;7.38;;;23.10;99.90;;;;;;5036326;28;20228;-81
2023/08/24 07:26:01;;;;;;;8.68;6.60;;;23.00;99.90;;;;;;5036028;28;20222;-80
2023/08/24 07:28:29;;;;;;;14.20;7.20;;;23.10;99.90;;;;;;5036241;28;20244;-80
2023/08/24 07:30:56;;;;;;;7.82;7.00;;;23.30;99.90;;;;;;5036157;28;20208;-81
2023/08/24 07:33:23;;;;;;;8.73;7.18;;;23.20;99.90;;;;;;5036134;28;20198;-81
2023/08/24 07:35:50;;;;;;;10.10;6.70;;;23.40;99.90;;;;;;5036082;28;20198;-81
2023/08/24 07:38:16;;;;;;;6.63;6.03;;;23.60;99.90;;;;;;5036018;28;20256;-81
2023/08/24 07:40:43;;;;;;;7.22;6.22;;;23.70;99.90;;;;;;5035594;28;20768;-81
2023/08/24 07:43:10;;;;;;;10.80;6.45;;;23.90;99.90;;;;;;5035827;28;20597;-81
2023/08/24 07:45:38;;;;;;;8.55;6.45;;;23.80;99.90;;;;;;5035743;28;20226;-81
2023/08/24 07:48:05;;;;;;;8.98;6.70;;;23.90;99.90;;;;;;5035708;28;20202;-81
2023/08/24 07:50:32;;;;;;;6.68;6.00;;;24.20;99.90;;;;;;5035925;28;20280;-80
2023/08/24 07:52:59;;;;;;;9.52;6.38;;;24.40;99.90;;;;;;5035531;28;20199;-80
2023/08/24 07:55:25;;;;;;;9.38;6.47;;;24.40;99.90;;;;;;5035465;28;20209;-80
2023/08/24 07:57:52;;;;;;;8.65;6.72;;;24.30;99.90;;;;;;5035625;28;20198;-81
2023/08/24 08:00:19;;;;;;;9.18;6.30;;;24.20;99.90;;;;;;5035501;28;20206;-80
2023/08/24 08:02:50;;;;;;;8.88;5.72;;;24.30;99.90;;;;;;5035423;28;20257;-80
2023/08/24 08:05:16;;;;;;;7.85;5.85;;;24.80;99.90;;;;;;5035339;28;20205;-81
2023/08/24 08:07:43;;;;;;;8.75;6.20;;;25.10;99.90;;;;;;5035180;28;20194;-82
2023/08/24 08:10:10;;;;;;;7.97;5.57;;;25.40;99.90;;;;;;5035366;28;20717;-81
2023/08/24 08:12:37;;;;;;;13.43;6.28;;;25.60;99.90;;;;;;5035311;28;20203;-81
2023/08/24 08:15:04;;;;;;;9.85;5.40;;;25.60;99.90;;;;;;5035183;28;20199;-81
2023/08/24 08:17:33;;;;;;;8.02;5.10;;;25.60;99.90;;;;;;5035113;28;20198;-81
2023/08/24 08:20:02;;;;;;;6.95;5.10;;;26.10;99.90;;;;;;5034969;28;20198;-81
2023/08/24 08:22:29;;;;;;;8.45;4.60;;;26.50;99.90;;;;;;5034874;28;20203;-81
2023/08/24 08:24:56;;;;;;;7.65;4.38;;;26.90;99.90;;;;;;5035157;28;20207;-81
2023/08/24 08:27:22;;;;;;;5.07;3.95;;;27.40;99.90;;;;;;5034898;28;20225;-81
2023/08/24 08:29:50;;;;;;;7.47;4.28;;;27.60;99.90;;;;;;5034966;28;20206;-81
2023/08/24 08:32:17;;;;;;;4.50;4.07;;;27.70;99.90;;;;;;5034894;28;20198;-81
2023/08/24 08:34:44;;;;;;;4.72;4.32;;;27.70;99.90;;;;;;5034747;28;20198;-81
2023/08/24 08:37:12;;;;;;;6.82;4.47;;;27.80;99.90;;;;;;5034704;28;20662;-81
2023/08/24 08:39:38;;;;;;;4.95;4.45;;;28.00;99.90;;;;;;5034639;28;20202;-81
2023/08/24 08:42:05;;;;;;;7.13;4.88;;;28.00;99.90;;;;;;5034853;28;20198;-81
2023/08/24 08:44:33;;;;;;;6.18;5.07;;;28.40;99.90;;;;;;5034485;28;20658;-79
2023/08/24 08:47:00;;;;;;;8.55;4.38;;;28.70;99.90;;;;;;5036138;28;20288;-79
2023/08/24 08:49:26;;;;;;;4.45;4.05;;;29.00;99.90;;;;;;5054506;28;20653;-80
2023/08/24 08:51:53;;;;;;;5.00;4.18;;;29.30;99.90;;;;;;5034949;28;20591;-75
2023/08/24 08:54:21;;;;;;;6.47;4.45;;;29.60;99.90;;;;;;5034371;28;20198;-76
2023/08/24 08:56:49;;;;;;;6.93;5.10;;;30.00;99.90;;;;;;5034016;28;20211;-75
2023/08/24 08:59:16;;;;;;;5.13;4.30;;;29.80;99.90;;;;;;5034275;28;20207;-76
2023/08/24 09:01:45;;;;;;;7.40;4.53;;;29.80;99.90;;;;;;5033957;28;20194;-75
2023/08/24 09:04:12;;;;;;;9.02;4.80;;;29.60;99.90;;;;;;5032891;28;20233;-73
2023/08/24 09:06:40;;;;;;;8.60;4.32;;;29.20;99.90;;;;;;5032880;28;20273;-76
2023/08/24 09:09:07;;;;;;;5.07;4.47;;;28.90;99.90;;;;;;5028243;28;20236;-73
2023/08/24 09:11:35;;;;;;;9.77;4.70;;;28.90;99.90;;;;;;5030593;28;20210;-74
2023/08/24 09:14:02;;;;;;;6.82;4.60;;;29.20;99.90;;;;;;5030411;28;20237;-72
2023/08/24 09:16:30;;;;;;;7.03;4.70;;;29.60;99.90;;;;;;5030304;28;20228;-72
2023/08/24 09:18:57;;;;;;;5.35;4.53;;;30.00;99.90;;;;;;5030072;28;20260;-72
2023/08/24 09:21:24;;;;;;;9.38;4.88;;;30.20;99.90;;;;;;5030547;28;20205;-74
2023/08/24 09:23:54;;;;;;;10.35;4.70;;;30.40;99.90;;;;;;5030359;28;20206;-74
2023/08/24 09:26:29;;;;;;;7.78;4.78;;;30.60;99.90;;;;;;5030412;28;20219;-73
2023/08/24 09:28:57;;;;;;;5.72;4.60;;;30.80;99.30;;;;;;5030078;28;20681;-74
2023/08/24 09:31:24;;;;;;;7.32;4.70;;;30.70;97.40;;;;;;5029896;28;20276;-74
2023/08/24 09:33:50;;;;;;;11.07;4.50;;;30.90;96.80;;;;;;5030054;28;20798;-73
2023/08/24 09:36:18;;;;;;;5.47;4.55;;;30.00;97.10;;;;;;5030324;28;20275;-74
2023/08/24 09:38:49;;;;;;;5.32;4.32;;;29.70;96.80;;;;;;5031314;28;20264;-74
2023/08/24 09:41:16;;;;;;;6.60;4.22;;;29.60;97.10;;;;;;5033254;28;20304;-72
2023/08/24 09:43:42;;;;;;;7.53;4.57;;;30.10;97.00;;;;;;5033443;28;20251;-72
2023/08/24 09:46:10;;;;;;;5.95;3.92;;;30.70;96.10;;;;;;5033630;28;20222;-73
2023/08/24 09:48:37;;;;;;;8.00;4.25;;;31.20;95.50;;;;;;5033402;28;20203;-74
2023/08/24 09:51:06;;;;;;;5.40;4.50;;;31.40;94.50;;;;;;5035807;28;20206;-74
2023/08/24 09:53:34;;;;;;;7.88;4.93;;;31.70;94.00;;;;;;5033256;28;20209;-73
2023/08/24 09:56:02;;;;;;;7.18;3.60;;;32.30;93.10;;;;;;5032871;28;20662;-74
2023/08/24 09:58:31;;;;;;;6.53;3.80;;;32.50;91.50;;;;;;5033657;28;20202;-71
2023/08/24 10:00:57;;;;;;;5.68;3.58;;;32.70;90.60;;;;;;5033116;28;20289;-71
2023/08/24 10:03:26;;;;;;;10.00;3.85;;;32.50;87.30;;;;;;5033048;28;20197;-71
2023/08/24 10:05:54;;;;;;;9.43;3.80;;;32.50;87.20;;;;;;5032568;28;20197;-71
2023/08/24 10:08:25;;;;;;;5.88;3.95;;;32.40;87.10;;;;;;5032962;28;20205;-71
2023/08/24 10:10:55;;;;;;;7.18;4.20;;;32.10;86.80;;;;;;5032673;28;20247;-71
2023/08/24 10:13:29;;;;;;;6.47;4.10;;;32.00;86.90;;;;;;5032872;28;20612;-71
2023/08/24 10:15:57;;;;;;;5.53;3.83;;;32.00;86.90;;;;;;5032717;28;20558;-72
2023/08/24 10:18:24;;;;;;;8.68;3.58;;;32.40;85.70;;;;;;5032977;28;20245;-72
2023/08/24 10:20:53;;;;;;;4.75;3.80;;;33.00;84.40;;;;;;5032268;28;20201;-75
2023/08/24 10:23:20;;;;;;;8.85;4.07;;;33.30;82.50;;;;;;5032606;28;20538;-72
2023/08/24 10:25:47;;;;;;;5.10;3.30;;;33.70;81.30;;;;;;5032817;28;20262;-74
2023/08/24 10:28:15;;;;;;;4.45;3.40;;;34.10;81.80;;;;;;5032581;28;20205;-74
2023/08/24 10:30:43;;;;;;;4.35;3.95;;;34.20;79.10;;;;;;5032654;28;20202;-74
2023/08/24 10:33:11;;;;;;;5.07;3.42;;;34.20;77.70;;;;;;5032547;28;20202;-74
2023/08/24 10:35:38;;;;;;;5.93;3.67;;;34.60;77.90;;;;;;5032507;28;20201;-74
2023/08/24 10:38:06;;;;;;;8.32;3.70;;;35.00;76.50;;;;;;5032688;28;20354;-74
2023/08/24 10:40:33;;;;;;;5.03;3.72;;;35.60;74.20;;;;;;5032285;28;20225;-74
2023/08/24 10:43:04;;;;;;;5.60;3.60;;;35.90;72.10;;;;;;5032502;28;20228;-74
2023/08/24 10:45:55;;;;;;;3.83;3.53;;;36.30;71.00;;;;;;5032318;28;20204;-74
2023/08/24 10:48:23;;;;;;;6.68;3.47;;;37.10;69.10;;;;;;5032866;28;20205;-73
2023/08/24 10:51:19;;;;;;;8.30;3.90;;;37.40;67.00;;;;;;5032392;28;20198;-72
2023/08/24 10:53:48;;;;;;;6.15;3.60;;;37.90;64.70;;;;;;5032401;28;20205;-70
2023/08/24 10:56:16;;;;;;;10.45;4.00;;;38.30;64.50;;;;;;5031683;28;20210;-71
2023/08/24 10:58:43;;;;;;;4.75;3.65;;;39.00;60.70;;;;;;5030714;28;20201;-72
2023/08/24 11:01:15;;;;;;;7.53;3.95;;;39.50;58.60;;;;;;5030981;28;20202;-73
2023/08/24 11:03:46;;;;;;;4.35;3.40;;;40.20;56.40;;;;;;5031069;28;20289;-73
2023/08/24 11:06:20;;;;;;;5.93;3.60;;;40.40;54.90;;;;;;5030869;28;20194;-72
2023/08/24 11:08:49;;;;;;;7.32;4.20;;;40.20;53.20;;;;;;5030851;28;20207;-73
2023/08/24 11:11:20;;;;;;;3.78;3.47;;;40.80;51.80;;;;;;5030696;28;20205;-72
2023/08/24 11:14:14;;;;;;;4.38;3.40;;;40.90;50.50;;;;;;5030924;28;20206;-72
2023/08/24 11:16:42;;;;;;;6.13;3.50;;;41.00;50.30;;;;;;5030621;28;20707;-71
2023/08/24 11:19:11;;;;;;;4.82;3.83;;;41.30;49.10;;;;;;5030646;28;20232;-72
2023/08/24 11:21:38;;;;;;;5.38;3.50;;;41.30;46.70;;;;;;5030981;28;20256;-72
2023/08/24 11:24:07;;;;;;;4.70;3.60;;;40.80;47.70;;;;;;5032062;28;20198;-72
2023/08/24 11:26:34;;;;;;;5.07;3.50;;;40.40;48.00;;;;;;5032263;28;20206;-72
2023/08/24 11:29:05;;;;;;;8.80;3.65;;;40.30;47.90;;;;;;5032163;28;20205;-72
2023/08/24 11:31:31;;;;;;;5.97;3.70;;;40.20;47.30;;;;;;5032385;28;20225;-72
2023/08/24 11:33:58;;;;;;;4.25;3.60;;;40.50;47.40;;;;;;5035963;28;20198;-72
2023/08/24 11:36:25;;;;;;;6.30;3.80;;;40.60;46.60;;;;;;5035553;28;20198;-72
2023/08/24 11:38:54;;;;;;;4.60;3.72;;;40.50;46.30;;;;;;5035623;28;20202;-72
2023/08/24 11:41:22;;;;;;;5.07;3.55;;;40.50;45.40;;;;;;5035228;28;20771;-72
2023/08/24 11:43:50;;;;;;;5.43;3.45;;;40.00;45.40;;;;;;5035510;28;20202;-72
2023/08/24 11:46:18;;;;;;;8.23;5.78;;;39.30;46.00;;;;;;5035589;28;20194;-72
2023/08/24 11:48:45;;;;;;;6.60;3.65;;;39.30;46.00;;;;;;5035422;28;20202;-72
2023/08/24 11:51:13;;;;;;;4.60;3.40;;;39.70;45.40;;;;;;5035418;28;20201;-72
2023/08/24 11:53:40;;;;;;;6.13;3.60;;;39.70;45.30;;;;;;5035389;28;20842;-72
2023/08/24 11:56:10;;;;;;;4.47;3.80;;;40.40;44.80;;;;;;5034967;28;20704;-72
2023/08/24 11:58:40;;;;;;;6.15;3.65;;;40.30;44.30;;;;;;5035304;28;20288;-72
2023/08/24 12:01:07;;;;;;;5.63;4.00;;;40.20;44.10;;;;;;5035038;28;20198;-72
2023/08/24 12:03:33;;;;;;;7.53;3.72;;;40.20;43.80;;;;;;5035007;28;20653;-72
2023/08/24 12:06:01;;;;;;;9.27;3.90;;;40.10;43.60;;;;;;5035426;28;20201;-73
2023/08/24 12:08:27;;;;;;;5.65;4.00;;;40.60;43.50;;;;;;5035169;28;20206;-73
2023/08/24 12:10:54;;;;;;;4.63;3.58;;;41.00;43.00;;;;;;5035125;28;20244;-73
2023/08/24 12:13:21;;;;;;;5.95;3.90;;;41.20;42.90;;;;;;5035031;28;20206;-73
2023/08/24 12:15:51;;;;;;;7.10;3.67;;;40.60;42.50;;;;;;5035008;28;20202;-72
2023/08/24 12:18:19;;;;;;;4.30;3.88;;;40.50;43.30;;;;;;5035070;28;20225;-74
2023/08/24 12:20:45;;;;;;;5.38;3.53;;;41.10;43.00;;;;;;5034857;28;20233;-72
2023/08/24 12:23:12;;;;;;;6.78;3.95;;;41.90;41.90;;;;;;5034787;28;20206;-72
2023/08/24 12:25:43;;;;;;;10.07;4.40;;;42.00;41.20;;;;;;5034850;28;20236;-72
2023/08/24 12:28:11;;;;;;;10.25;3.95;;;42.50;41.10;;;;;;5034890;28;20202;-72
2023/08/24 12:30:45;;;;;;;6.07;3.67;;;42.30;40.70;;;;;;5034856;28;20201;-73
2023/08/24 12:33:24;;;;;;;6.15;3.90;;;43.00;41.10;;;;;;5034705;28;20197;-72
2023/08/24 12:35:50;;;;;;;6.70;3.70;;;43.40;40.30;;;;;;5034853;28;20201;-72
2023/08/24 12:38:17;;;;;;;4.57;4.10;;;44.10;39.80;;;;;;5034553;28;20563;-72
2023/08/24 12:40:44;;;;;;;4.25;3.80;;;44.00;38.10;;;;;;5034319;28;20233;-72